createdAt,value
2024-03-05T00:00:16.154Z,96092.25
2024-03-05T00:05:20.599Z,96101.47
2024-03-05T00:10:23.489Z,96109.88
2024-03-05T00:15:27.786Z,96109.63
2024-03-05T00:20:32.366Z,96114.25
2024-03-05T00:25:35.290Z,96117.22
2024-03-05T00:30:38.228Z,96121.53
2024-03-05T00:35:43.291Z,96130.19
2024-03-05T00:40:46.788Z,96129.91
2024-03-05T00:45:49.720Z,96128.03
2024-03-05T00:50:53.928Z,96143.16
2024-03-05T00:55:56.994Z,96135.91
2024-03-05T01:00:59.995Z,96135.59
2024-03-05T01:06:05.011Z,96133.97
2024-03-05T01:11:08.286Z,96134.78
2024-03-05T01:16:11.860Z,96135.06
2024-03-05T01:21:16.236Z,96131.28
2024-03-05T01:26:19.267Z,96138.88
2024-03-05T01:31:22.211Z,96135.91
2024-03-05T01:36:26.868Z,96132.97
2024-03-05T01:41:29.726Z,96146.75
2024-03-05T01:46:32.999Z,96152.47
2024-03-05T01:51:37.649Z,96143.53
2024-03-05T01:56:40.630Z,96147.56
2024-03-05T02:01:45.183Z,96157.56
2024-03-05T02:06:49.806Z,96160.00
2024-03-05T02:11:56.835Z,96165.97
2024-03-05T02:17:02.764Z,96153.53
2024-03-05T02:22:08.338Z,96167.59
2024-03-05T02:27:17.223Z,96167.88
2024-03-05T02:32:23.275Z,96164.38
2024-03-05T02:37:28.161Z,96167.34
2024-03-05T02:42:31.122Z,96167.88
2024-03-05T02:47:34.144Z,96178.69
2024-03-05T02:52:39.941Z,96184.63
2024-03-05T02:57:43.666Z,96183.81
2024-03-05T03:02:48.310Z,96186.53
2024-03-05T03:07:53.204Z,96187.03
2024-03-05T03:12:56.207Z,96191.66
2024-03-05T03:17:59.217Z,96191.66
2024-03-05T03:23:03.629Z,96209.50
2024-03-05T03:28:06.941Z,96206.53
2024-03-05T03:33:10.694Z,96214.09
2024-03-05T03:38:15.597Z,96215.72
2024-03-05T03:43:18.514Z,96210.03
2024-03-05T03:48:21.481Z,96211.09
2024-03-05T03:53:25.696Z,96200.28
2024-03-05T03:58:28.842Z,96218.13
2024-03-05T04:03:32.267Z,96217.88
2024-03-05T04:08:36.547Z,96216.81
2024-03-05T04:13:39.790Z,96213.28
2024-03-05T04:18:42.999Z,96209.50
2024-03-05T04:23:47.238Z,96203.78
2024-03-05T04:28:51.125Z,96211.09
2024-03-05T04:34:00.204Z,96197.59
2024-03-05T04:39:04.592Z,96204.91
2024-03-05T04:44:09.599Z,96220.88
2024-03-05T04:49:12.482Z,96211.13
2024-03-05T04:54:16.731Z,96217.06
2024-03-05T04:59:19.708Z,96214.63
2024-03-05T05:04:22.613Z,96220.31
2024-03-05T05:09:26.824Z,96217.06
2024-03-05T05:14:29.777Z,96229.25
2024-03-05T05:19:32.790Z,96231.69
2024-03-05T05:24:38.031Z,96238.69
2024-03-05T05:29:42.708Z,96243.28
2024-03-05T05:34:45.887Z,96239.22
2024-03-05T05:39:50.116Z,96241.94
2024-03-05T05:44:53.826Z,96245.94
2024-03-05T05:49:56.920Z,96243.00
2024-03-05T05:55:01.253Z,96240.81
2024-03-05T06:00:08.745Z,96244.88
2024-03-05T06:05:11.590Z,96251.38
2024-03-05T06:10:19.268Z,96243.50
2024-03-05T06:15:22.256Z,96248.66
2024-03-05T06:20:25.214Z,96255.94
2024-03-05T06:25:29.580Z,96251.63
2024-03-05T06:30:32.693Z,96257.03
2024-03-05T06:35:35.607Z,96258.13
2024-03-05T06:40:40.101Z,96257.56
2024-03-05T06:45:44.199Z,96266.50
2024-03-05T06:50:53.466Z,96267.28
2024-03-05T06:56:16.039Z,96275.13
2024-03-05T07:01:21.305Z,96276.47
2024-03-05T07:06:24.838Z,96285.69
2024-03-05T07:11:30.516Z,96283.50
2024-03-05T07:16:34.248Z,96295.41
2024-03-05T07:21:37.657Z,96287.81
2024-03-05T07:26:49.747Z,96292.69
2024-03-05T07:31:59.883Z,96295.66
2024-03-05T07:37:02.881Z,96298.63
2024-03-05T07:42:07.321Z,96306.19
2024-03-05T07:47:10.318Z,96312.44
2024-03-05T07:52:13.308Z,96310.81
2024-03-05T07:57:17.505Z,96317.00
2024-03-05T08:02:20.452Z,96313.75
2024-03-05T08:07:23.459Z,96323.50
2024-03-05T08:12:27.785Z,96327.28
2024-03-05T08:17:30.894Z,96319.44
2024-03-05T08:22:35.556Z,96320.28
2024-03-05T08:27:40.691Z,96314.03
2024-03-05T08:32:44.897Z,96307.00
2024-03-05T08:37:50.048Z,96312.38
2024-03-05T08:42:55.378Z,96306.41
2024-03-05T08:47:59.254Z,96303.69
2024-03-05T08:53:04.095Z,96307.22
2024-03-05T08:58:10.405Z,96305.63
2024-03-05T09:03:13.896Z,96313.44
2024-03-05T09:08:16.946Z,96319.69
2024-03-05T09:13:21.605Z,96316.44
2024-03-05T09:18:24.626Z,96320.19
2024-03-05T09:23:27.616Z,96324.28
2024-03-05T09:28:35.590Z,96320.47
2024-03-05T09:33:39.947Z,96321.03
2024-03-05T09:38:42.977Z,96330.25
2024-03-05T09:43:48.444Z,96324.41
2024-03-05T09:48:51.392Z,96321.75
2024-03-05T09:53:54.824Z,96321.13
2024-03-05T09:59:04.196Z,96319.00
2024-03-05T10:04:07.336Z,96316.84
2024-03-05T10:09:11.669Z,96317.72
2024-03-05T10:14:15.920Z,96306.06
2024-03-05T10:19:20.140Z,96297.13
2024-03-05T10:24:31.246Z,96293.28
2024-03-05T10:29:39.422Z,96309.81
2024-03-05T10:34:44.489Z,96312.25
2024-03-05T10:39:47.435Z,96314.06
2024-03-05T10:44:52.876Z,96317.78
2024-03-05T10:49:55.902Z,96315.38
2024-03-05T10:54:59.247Z,96310.38
2024-03-05T11:00:09.075Z,96295.22
2024-03-05T11:05:12.132Z,96298.19
2024-03-05T11:10:15.229Z,96302.25
2024-03-05T11:15:19.686Z,96291.41
2024-03-05T11:20:44.180Z,96292.78
2024-03-05T11:25:48.397Z,96292.00
2024-03-05T11:31:10.640Z,96294.75
2024-03-05T11:36:23.968Z,96291.13
2024-03-05T11:41:27.088Z,96283.09
2024-03-05T11:46:45.931Z,96271.19
2024-03-05T11:51:49.618Z,96260.50
2024-03-05T11:56:58.036Z,96258.31
2024-03-05T12:02:02.743Z,96250.94
2024-03-05T12:07:08.419Z,96238.44
2024-03-05T12:12:13.199Z,96239.50
2024-03-05T12:17:19.788Z,96238.16
2024-03-05T12:22:24.029Z,96227.09
2024-03-05T12:27:27.465Z,96217.97
2024-03-05T12:32:31.785Z,96212.88
2024-03-05T12:37:35.346Z,96216.94
2024-03-05T12:42:38.343Z,96212.03
2024-03-05T12:47:42.687Z,96214.25
2024-03-05T12:52:45.618Z,96209.13
2024-03-05T12:57:48.506Z,96209.13
2024-03-05T13:02:52.723Z,96211.09
2024-03-05T13:07:55.649Z,96212.75
2024-03-05T13:12:58.641Z,96206.19
2024-03-05T13:18:02.917Z,96195.84
2024-03-05T13:23:06.158Z,96188.50
2024-03-05T13:28:09.105Z,96198.25
2024-03-05T13:33:14.197Z,96205.03
2024-03-05T13:38:17.158Z,96193.63
2024-03-05T13:43:23.476Z,96191.78
2024-03-05T13:48:28.204Z,96205.28
2024-03-05T13:53:31.045Z,96200.13
2024-03-05T13:58:36.185Z,96205.69
2024-03-05T14:03:40.661Z,96220.56
2024-03-05T14:08:44.459Z,96244.69
2024-03-05T14:13:47.392Z,96277.78
2024-03-05T14:18:52.169Z,96266.94
2024-03-05T14:23:55.481Z,96276.66
2024-03-05T14:29:02.050Z,96270.38
2024-03-05T14:34:07.436Z,96295.00
2024-03-05T14:39:15.985Z,96305.81
2024-03-05T14:44:18.870Z,96310.22
2024-03-05T14:49:23.409Z,96306.66
2024-03-05T14:54:26.920Z,96307.72
2024-03-05T14:59:30.171Z,96303.56
2024-03-05T15:04:34.442Z,96307.38
2024-03-05T15:09:37.856Z,96301.41
2024-03-05T15:14:43.358Z,96297.06
2024-03-05T15:19:50.634Z,96292.50
2024-03-05T15:24:53.840Z,96291.97
2024-03-05T15:29:56.764Z,96296.66
2024-03-05T15:35:01.115Z,96304.19
2024-03-05T15:40:16.205Z,96321.28
2024-03-05T15:45:19.671Z,96301.22
2024-03-05T15:50:24.921Z,96323.38
2024-03-05T15:55:30.230Z,96332.91
2024-03-05T16:00:36.379Z,96341.03
2024-03-05T16:05:51.940Z,96332.16
2024-03-05T16:11:03.675Z,96335.88
2024-03-05T16:16:08.742Z,96344.59
2024-03-05T16:21:14.302Z,96352.00
2024-03-05T16:26:17.305Z,96356.81
2024-03-05T16:31:20.150Z,96362.19
2024-03-05T16:36:24.645Z,96355.94
2024-03-05T16:41:28.431Z,96379.44
2024-03-05T16:46:34.960Z,96390.88
2024-03-05T16:51:43.116Z,96397.97
2024-03-05T16:56:46.038Z,96408.34
2024-03-05T17:01:49.037Z,96412.13
2024-03-05T17:06:56.204Z,96411.28
2024-03-05T17:12:01.554Z,96431.81
2024-03-05T17:17:05.448Z,96447.75
2024-03-05T17:22:10.689Z,96449.66
2024-03-05T17:27:13.661Z,96459.97
2024-03-05T17:32:16.555Z,96462.41
2024-03-05T17:37:20.853Z,96470.56
2024-03-05T17:42:24.041Z,96479.81
2024-03-05T17:47:26.927Z,96482.81
2024-03-05T17:52:31.158Z,96497.44
2024-03-05T17:57:34.213Z,96499.06
2024-03-05T18:02:37.137Z,96499.63
2024-03-05T18:07:41.670Z,96508.00
2024-03-05T18:12:45.244Z,96512.38
2024-03-05T18:17:49.869Z,96512.09
2024-03-05T18:22:54.330Z,96511.56
2024-03-05T18:27:57.214Z,96508.88
2024-03-05T18:33:00.454Z,96516.75
2024-03-05T18:38:16.668Z,96520.03
2024-03-05T18:43:29.523Z,96526.56
2024-03-05T18:48:34.850Z,96520.31
2024-03-05T18:53:43.785Z,96511.94
2024-03-05T18:58:52.256Z,96511.94
2024-03-05T19:04:05.012Z,96505.44
2024-03-05T19:09:10.374Z,96497.84
2024-03-05T19:14:13.813Z,96500.31
2024-03-05T19:19:16.803Z,96503.84
2024-03-05T19:24:21.410Z,96506.28
2024-03-05T19:29:24.442Z,96510.06
2024-03-05T19:34:27.381Z,96509.00
2024-03-05T19:39:31.670Z,96501.13
2024-03-05T19:44:34.875Z,96505.72
2024-03-05T19:49:41.277Z,96503.25
2024-03-05T19:54:48.844Z,96509.22
2024-03-05T19:59:52.767Z,96515.16
2024-03-05T20:04:55.760Z,96515.72
2024-03-05T20:10:02.125Z,96512.75
2024-03-05T20:15:09.681Z,96522.75
2024-03-05T20:20:17.519Z,96512.19
2024-03-05T20:25:23.898Z,96510.56
2024-03-05T20:30:29.613Z,96500.81
2024-03-05T20:35:32.552Z,96504.63
2024-03-05T20:40:36.968Z,96504.09
2024-03-05T20:45:39.848Z,96509.78
2024-03-05T20:50:42.724Z,96501.91
2024-03-05T20:55:47.957Z,96499.75
2024-03-05T21:00:50.921Z,96505.44
2024-03-05T21:05:53.783Z,96505.72
2024-03-05T21:10:58.504Z,96513.84
2024-03-05T21:16:02.111Z,96514.34
2024-03-05T21:21:05.443Z,96516.78
2024-03-05T21:26:20.937Z,96518.16
2024-03-05T21:31:36.856Z,96513.56
2024-03-05T21:36:40.474Z,96516.53
2024-03-05T21:41:45.507Z,96521.94
2024-03-05T21:46:48.595Z,96513.31
2024-03-05T21:51:51.520Z,96518.16
2024-03-05T21:56:56.285Z,96528.44
2024-03-05T22:01:59.337Z,96526.25
2024-03-05T22:07:02.323Z,96521.94
2024-03-05T22:12:07.523Z,96514.38
2024-03-05T22:17:10.644Z,96513.28
2024-03-05T22:22:14.168Z,96520.03
2024-03-05T22:27:18.892Z,96527.06
2024-03-05T22:32:21.838Z,96521.13
2024-03-05T22:37:24.799Z,96528.44
2024-03-05T22:42:29.076Z,96530.59
2024-03-05T22:47:32.047Z,96536.28
2024-03-05T22:52:34.994Z,96538.47
2024-03-05T22:57:39.314Z,96538.72
2024-03-05T23:02:42.220Z,96535.19
2024-03-05T23:07:45.170Z,96538.97
2024-03-05T23:12:49.420Z,96537.88
2024-03-05T23:17:52.354Z,96547.91
2024-03-05T23:22:55.539Z,96556.03
2024-03-05T23:27:59.768Z,96548.19
2024-03-05T23:33:02.826Z,96543.88
2024-03-05T23:38:06.191Z,96545.47
2024-03-05T23:43:10.739Z,96546.00
2024-03-05T23:48:13.614Z,96532.22
2024-03-05T23:53:18.889Z,96525.44
2024-03-05T23:58:23.167Z,96550.06
